sensor_id;sensor_type;location;lat;lon;timestamp;temperature;humidity
78325;DHT22;67584;51.400;6.692;2023-03-03T00:02:26;1.60;81.90
78325;DHT22;67584;51.400;6.692;2023-03-03T00:04:51;1.60;80.90
78325;DHT22;67584;51.400;6.692;2023-03-03T00:07:17;1.80;81.10
78325;DHT22;67584;51.400;6.692;2023-03-03T00:09:48;1.80;80.40
78325;DHT22;67584;51.400;6.692;2023-03-03T00:14:46;1.70;80.90
78325;DHT22;67584;51.400;6.692;2023-03-03T00:17:27;1.90;81.20
78325;DHT22;67584;51.400;6.692;2023-03-03T00:19:54;2.00;80.90
78325;DHT22;67584;51.400;6.692;2023-03-03T00:22:29;1.80;80.60
78325;DHT22;67584;51.400;6.692;2023-03-03T00:24:59;1.70;81.70
78325;DHT22;67584;51.400;6.692;2023-03-03T00:27:33;1.70;81.40
78325;DHT22;67584;51.400;6.692;2023-03-03T00:30:00;1.80;81.60
78325;DHT22;67584;51.400;6.692;2023-03-03T00:32:37;1.80;81.80
78325;DHT22;67584;51.400;6.692;2023-03-03T00:35:29;1.90;80.40
78325;DHT22;67584;51.400;6.692;2023-03-03T00:38:00;1.90;81.90
78325;DHT22;67584;51.400;6.692;2023-03-03T00:40:34;1.70;80.70
78325;DHT22;67584;51.400;6.692;2023-03-03T00:43:01;1.70;81.20
78325;DHT22;67584;51.400;6.692;2023-03-03T00:45:44;1.80;81.70
78325;DHT22;67584;51.400;6.692;2023-03-03T00:51:15;1.60;81.40
78325;DHT22;67584;51.400;6.692;2023-03-03T00:53:45;1.50;81.70
78325;DHT22;67584;51.400;6.692;2023-03-03T00:56:11;1.70;81.70
78325;DHT22;67584;51.400;6.692;2023-03-03T00:58:36;1.80;81.30
78325;DHT22;67584;51.400;6.692;2023-03-03T01:01:02;1.60;81.10
78325;DHT22;67584;51.400;6.692;2023-03-03T01:03:38;1.50;81.60
78325;DHT22;67584;51.400;6.692;2023-03-03T01:06:05;1.70;81.90
78325;DHT22;67584;51.400;6.692;2023-03-03T01:08:31;1.60;81.50
78325;DHT22;67584;51.400;6.692;2023-03-03T01:11:02;1.70;82.10
78325;DHT22;67584;51.400;6.692;2023-03-03T01:13:31;1.80;81.20
78325;DHT22;67584;51.400;6.692;2023-03-03T01:15:59;1.60;81.50
78325;DHT22;67584;51.400;6.692;2023-03-03T01:18:26;1.50;80.60
78325;DHT22;67584;51.400;6.692;2023-03-03T01:20:52;1.60;81.80
78325;DHT22;67584;51.400;6.692;2023-03-03T01:23:18;1.70;82.10
78325;DHT22;67584;51.400;6.692;2023-03-03T01:25:43;1.60;81.50
78325;DHT22;67584;51.400;6.692;2023-03-03T01:28:09;1.40;81.50
78325;DHT22;67584;51.400;6.692;2023-03-03T01:30:35;1.60;81.60
78325;DHT22;67584;51.400;6.692;2023-03-03T01:33:01;1.70;81.60
78325;DHT22;67584;51.400;6.692;2023-03-03T01:35:27;1.60;82.10
78325;DHT22;67584;51.400;6.692;2023-03-03T01:37:54;1.60;81.70
78325;DHT22;67584;51.400;6.692;2023-03-03T01:40:26;1.60;80.80
78325;DHT22;67584;51.400;6.692;2023-03-03T01:42:52;1.80;80.40
78325;DHT22;67584;51.400;6.692;2023-03-03T01:45:27;1.50;81.70
78325;DHT22;67584;51.400;6.692;2023-03-03T01:51:32;1.40;81.60
78325;DHT22;67584;51.400;6.692;2023-03-03T01:53:41;1.60;80.80
78325;DHT22;67584;51.400;6.692;2023-03-03T01:56:08;1.70;81.40
78325;DHT22;67584;51.400;6.692;2023-03-03T01:58:44;1.60;81.20
78325;DHT22;67584;51.400;6.692;2023-03-03T02:01:14;1.70;81.40
78325;DHT22;67584;51.400;6.692;2023-03-03T02:03:41;1.70;80.90
78325;DHT22;67584;51.400;6.692;2023-03-03T02:06:13;1.80;80.90
78325;DHT22;67584;51.400;6.692;2023-03-03T02:09:01;1.70;80.60
78325;DHT22;67584;51.400;6.692;2023-03-03T02:11:31;1.50;81.70
78325;DHT22;67584;51.400;6.692;2023-03-03T02:13:57;1.50;81.00
78325;DHT22;67584;51.400;6.692;2023-03-03T02:16:24;1.60;81.10
78325;DHT22;67584;51.400;6.692;2023-03-03T02:18:49;1.50;81.90
78325;DHT22;67584;51.400;6.692;2023-03-03T02:21:19;1.60;81.50
78325;DHT22;67584;51.400;6.692;2023-03-03T02:26:16;1.60;81.40
78325;DHT22;67584;51.400;6.692;2023-03-03T02:28:43;1.50;81.70
78325;DHT22;67584;51.400;6.692;2023-03-03T02:31:13;1.40;81.50
78325;DHT22;67584;51.400;6.692;2023-03-03T02:33:47;1.50;81.70
78325;DHT22;67584;51.400;6.692;2023-03-03T02:36:17;1.60;82.00
78325;DHT22;67584;51.400;6.692;2023-03-03T02:44:06;1.50;81.60
78325;DHT22;67584;51.400;6.692;2023-03-03T02:46:38;1.30;82.10
78325;DHT22;67584;51.400;6.692;2023-03-03T02:49:06;1.40;82.40
78325;DHT22;67584;51.400;6.692;2023-03-03T02:51:33;1.40;81.90
78325;DHT22;67584;51.400;6.692;2023-03-03T02:53:59;1.50;81.70
78325;DHT22;67584;51.400;6.692;2023-03-03T02:56:27;1.40;80.70
78325;DHT22;67584;51.400;6.692;2023-03-03T02:58:53;1.50;81.40
78325;DHT22;67584;51.400;6.692;2023-03-03T03:01:20;1.60;81.50
78325;DHT22;67584;51.400;6.692;2023-03-03T03:03:46;1.40;81.30
78325;DHT22;67584;51.400;6.692;2023-03-03T03:06:15;1.50;81.10
78325;DHT22;67584;51.400;6.692;2023-03-03T03:08:41;1.50;80.80
78325;DHT22;67584;51.400;6.692;2023-03-03T03:11:07;1.60;80.90
78325;DHT22;67584;51.400;6.692;2023-03-03T03:13:33;1.40;81.30
78325;DHT22;67584;51.400;6.692;2023-03-03T03:16:00;1.40;81.10
78325;DHT22;67584;51.400;6.692;2023-03-03T03:18:26;1.50;81.60
78325;DHT22;67584;51.400;6.692;2023-03-03T03:20:55;1.70;81.20
78325;DHT22;67584;51.400;6.692;2023-03-03T03:23:20;1.60;81.80
78325;DHT22;67584;51.400;6.692;2023-03-03T03:25:47;1.50;81.00
78325;DHT22;67584;51.400;6.692;2023-03-03T03:28:22;1.40;80.90
78325;DHT22;67584;51.400;6.692;2023-03-03T03:30:51;1.50;81.20
78325;DHT22;67584;51.400;6.692;2023-03-03T03:33:18;1.50;81.20
78325;DHT22;67584;51.400;6.692;2023-03-03T03:35:45;1.50;81.70
78325;DHT22;67584;51.400;6.692;2023-03-03T03:38:15;1.40;82.00
78325;DHT22;67584;51.400;6.692;2023-03-03T03:40:42;1.50;81.50
78325;DHT22;67584;51.400;6.692;2023-03-03T03:43:13;1.30;82.10
78325;DHT22;67584;51.400;6.692;2023-03-03T03:45:43;1.30;80.90
78325;DHT22;67584;51.400;6.692;2023-03-03T03:48:09;1.30;81.20
78325;DHT22;67584;51.400;6.692;2023-03-03T03:50:38;1.50;81.40
78325;DHT22;67584;51.400;6.692;2023-03-03T03:53:08;1.60;81.00
78325;DHT22;67584;51.400;6.692;2023-03-03T03:55:35;1.50;81.00
78325;DHT22;67584;51.400;6.692;2023-03-03T03:58:01;1.40;80.70
78325;DHT22;67584;51.400;6.692;2023-03-03T04:00:27;1.30;81.60
78325;DHT22;67584;51.400;6.692;2023-03-03T04:02:57;1.30;81.00
78325;DHT22;67584;51.400;6.692;2023-03-03T04:05:23;1.40;81.20
78325;DHT22;67584;51.400;6.692;2023-03-03T04:07:49;1.20;81.00
78325;DHT22;67584;51.400;6.692;2023-03-03T04:10:17;1.10;80.90
78325;DHT22;67584;51.400;6.692;2023-03-03T04:12:43;1.50;81.40
78325;DHT22;67584;51.400;6.692;2023-03-03T04:15:13;1.60;80.50
78325;DHT22;67584;51.400;6.692;2023-03-03T04:17:40;1.40;81.20
78325;DHT22;67584;51.400;6.692;2023-03-03T04:20:07;1.30;81.30
78325;DHT22;67584;51.400;6.692;2023-03-03T04:22:33;1.30;80.90
78325;DHT22;67584;51.400;6.692;2023-03-03T04:25:02;1.40;81.10
78325;DHT22;67584;51.400;6.692;2023-03-03T04:27:32;1.30;81.30
78325;DHT22;67584;51.400;6.692;2023-03-03T04:29:58;1.40;81.50
78325;DHT22;67584;51.400;6.692;2023-03-03T04:32:25;1.50;81.60
78325;DHT22;67584;51.400;6.692;2023-03-03T04:34:52;1.30;81.10
78325;DHT22;67584;51.400;6.692;2023-03-03T04:37:18;1.50;81.60
78325;DHT22;67584;51.400;6.692;2023-03-03T04:39:44;1.40;81.00
78325;DHT22;67584;51.400;6.692;2023-03-03T04:42:11;1.40;81.50
78325;DHT22;67584;51.400;6.692;2023-03-03T04:44:37;1.40;80.70
78325;DHT22;67584;51.400;6.692;2023-03-03T04:47:03;1.50;81.50
78325;DHT22;67584;51.400;6.692;2023-03-03T04:49:29;1.30;81.40
78325;DHT22;67584;51.400;6.692;2023-03-03T04:51:56;1.30;81.90
78325;DHT22;67584;51.400;6.692;2023-03-03T04:54:22;1.30;81.90
78325;DHT22;67584;51.400;6.692;2023-03-03T04:56:49;1.20;81.40
78325;DHT22;67584;51.400;6.692;2023-03-03T04:59:14;1.30;81.40
78325;DHT22;67584;51.400;6.692;2023-03-03T05:01:41;1.10;81.40
78325;DHT22;67584;51.400;6.692;2023-03-03T05:04:07;1.30;81.70
78325;DHT22;67584;51.400;6.692;2023-03-03T05:06:33;1.30;81.40
78325;DHT22;67584;51.400;6.692;2023-03-03T05:08:59;1.40;81.50
78325;DHT22;67584;51.400;6.692;2023-03-03T05:11:25;1.20;81.90
78325;DHT22;67584;51.400;6.692;2023-03-03T05:13:51;1.10;81.20
78325;DHT22;67584;51.400;6.692;2023-03-03T05:16:16;1.40;81.40
78325;DHT22;67584;51.400;6.692;2023-03-03T05:18:42;1.30;81.50
78325;DHT22;67584;51.400;6.692;2023-03-03T05:21:10;1.30;81.90
78325;DHT22;67584;51.400;6.692;2023-03-03T05:23:36;1.30;81.90
78325;DHT22;67584;51.400;6.692;2023-03-03T05:26:03;1.20;81.40
78325;DHT22;67584;51.400;6.692;2023-03-03T05:28:29;1.30;82.20
78325;DHT22;67584;51.400;6.692;2023-03-03T05:30:54;1.20;82.40
78325;DHT22;67584;51.400;6.692;2023-03-03T05:33:20;1.30;81.80
78325;DHT22;67584;51.400;6.692;2023-03-03T05:35:46;1.40;81.70
78325;DHT22;67584;51.400;6.692;2023-03-03T05:38:12;1.20;81.20
78325;DHT22;67584;51.400;6.692;2023-03-03T05:40:38;1.40;80.80
78325;DHT22;67584;51.400;6.692;2023-03-03T05:43:04;1.30;82.10
78325;DHT22;67584;51.400;6.692;2023-03-03T05:45:30;1.20;81.70
78325;DHT22;67584;51.400;6.692;2023-03-03T05:47:55;1.20;82.20
78325;DHT22;67584;51.400;6.692;2023-03-03T05:50:22;1.20;82.10
78325;DHT22;67584;51.400;6.692;2023-03-03T05:52:49;1.30;81.90
78325;DHT22;67584;51.400;6.692;2023-03-03T05:55:15;1.10;81.80
78325;DHT22;67584;51.400;6.692;2023-03-03T05:57:41;1.20;82.30
78325;DHT22;67584;51.400;6.692;2023-03-03T06:00:07;1.20;81.70
78325;DHT22;67584;51.400;6.692;2023-03-03T06:02:40;1.10;81.40
78325;DHT22;67584;51.400;6.692;2023-03-03T06:05:07;0.90;82.00
78325;DHT22;67584;51.400;6.692;2023-03-03T06:07:33;1.10;81.40
78325;DHT22;67584;51.400;6.692;2023-03-03T06:09:59;1.20;81.40
78325;DHT22;67584;51.400;6.692;2023-03-03T06:12:25;1.20;81.10
78325;DHT22;67584;51.400;6.692;2023-03-03T06:14:51;1.10;81.00
78325;DHT22;67584;51.400;6.692;2023-03-03T06:17:17;1.20;81.70
78325;DHT22;67584;51.400;6.692;2023-03-03T06:19:43;1.40;81.30
78325;DHT22;67584;51.400;6.692;2023-03-03T06:22:08;1.30;81.80
78325;DHT22;67584;51.400;6.692;2023-03-03T06:24:34;1.30;81.70
78325;DHT22;67584;51.400;6.692;2023-03-03T06:27:00;1.10;81.90
78325;DHT22;67584;51.400;6.692;2023-03-03T06:29:27;1.30;81.50
78325;DHT22;67584;51.400;6.692;2023-03-03T06:31:52;1.30;81.30
78325;DHT22;67584;51.400;6.692;2023-03-03T06:34:18;1.30;81.10
78325;DHT22;67584;51.400;6.692;2023-03-03T06:36:44;1.30;80.70
78325;DHT22;67584;51.400;6.692;2023-03-03T06:39:11;1.60;81.00
78325;DHT22;67584;51.400;6.692;2023-03-03T06:41:37;1.50;81.90
78325;DHT22;67584;51.400;6.692;2023-03-03T06:44:03;1.40;81.80
78325;DHT22;67584;51.400;6.692;2023-03-03T06:46:29;1.40;81.20
78325;DHT22;67584;51.400;6.692;2023-03-03T06:48:54;1.60;80.80
78325;DHT22;67584;51.400;6.692;2023-03-03T06:51:37;1.40;80.30
78325;DHT22;67584;51.400;6.692;2023-03-03T06:54:15;1.60;80.60
78325;DHT22;67584;51.400;6.692;2023-03-03T06:56:42;1.60;80.20
78325;DHT22;67584;51.400;6.692;2023-03-03T06:59:20;1.50;80.10
78325;DHT22;67584;51.400;6.692;2023-03-03T07:01:48;1.60;80.20
78325;DHT22;67584;51.400;6.692;2023-03-03T07:04:30;1.60;80.30
78325;DHT22;67584;51.400;6.692;2023-03-03T07:07:06;1.60;79.90
78325;DHT22;67584;51.400;6.692;2023-03-03T07:09:32;1.60;80.00
78325;DHT22;67584;51.400;6.692;2023-03-03T07:12:09;1.70;80.00
78325;DHT22;67584;51.400;6.692;2023-03-03T07:14:41;1.80;79.60
78325;DHT22;67584;51.400;6.692;2023-03-03T07:17:14;1.60;79.60
78325;DHT22;67584;51.400;6.692;2023-03-03T07:19:42;1.90;79.60
78325;DHT22;67584;51.400;6.692;2023-03-03T07:22:13;1.70;79.40
78325;DHT22;67584;51.400;6.692;2023-03-03T07:24:40;1.80;79.20
78325;DHT22;67584;51.400;6.692;2023-03-03T07:27:29;1.80;79.40
78325;DHT22;67584;51.400;6.692;2023-03-03T07:32:45;1.90;79.00
78325;DHT22;67584;51.400;6.692;2023-03-03T07:37:55;2.00;78.80
78325;DHT22;67584;51.400;6.692;2023-03-03T07:40:38;2.00;78.40
78325;DHT22;67584;51.400;6.692;2023-03-03T07:43:40;2.00;78.30
78325;DHT22;67584;51.400;6.692;2023-03-03T07:48:41;2.10;78.20
78325;DHT22;67584;51.400;6.692;2023-03-03T07:53:47;2.20;78.00
78325;DHT22;67584;51.400;6.692;2023-03-03T07:56:34;2.10;78.10
78325;DHT22;67584;51.400;6.692;2023-03-03T07:59:08;2.20;77.80
78325;DHT22;67584;51.400;6.692;2023-03-03T08:01:43;2.10;77.80
78325;DHT22;67584;51.400;6.692;2023-03-03T08:05:01;2.20;77.70
78325;DHT22;67584;51.400;6.692;2023-03-03T08:07:02;2.10;77.80
78325;DHT22;67584;51.400;6.692;2023-03-03T08:09:35;2.30;77.80
78325;DHT22;67584;51.400;6.692;2023-03-03T08:15:17;2.40;77.70
78325;DHT22;67584;51.400;6.692;2023-03-03T08:17:43;2.40;77.40
78325;DHT22;67584;51.400;6.692;2023-03-03T08:23:01;2.40;77.20
78325;DHT22;67584;51.400;6.692;2023-03-03T08:25:27;2.30;76.90
78325;DHT22;67584;51.400;6.692;2023-03-03T08:27:52;2.30;77.00
78325;DHT22;67584;51.400;6.692;2023-03-03T08:30:18;2.60;77.10
78325;DHT22;67584;51.400;6.692;2023-03-03T08:32:44;2.80;76.80
78325;DHT22;67584;51.400;6.692;2023-03-03T08:35:10;2.80;76.50
78325;DHT22;67584;51.400;6.692;2023-03-03T08:37:35;2.70;76.50
78325;DHT22;67584;51.400;6.692;2023-03-03T08:40:01;2.80;76.30
78325;DHT22;67584;51.400;6.692;2023-03-03T08:42:27;2.90;76.20
78325;DHT22;67584;51.400;6.692;2023-03-03T08:44:54;2.70;76.20
78325;DHT22;67584;51.400;6.692;2023-03-03T08:47:20;2.60;76.40
78325;DHT22;67584;51.400;6.692;2023-03-03T08:49:46;2.70;76.10
78325;DHT22;67584;51.400;6.692;2023-03-03T08:52:12;2.70;76.20
78325;DHT22;67584;51.400;6.692;2023-03-03T08:54:38;2.90;76.00
78325;DHT22;67584;51.400;6.692;2023-03-03T08:57:03;2.60;76.00
78325;DHT22;67584;51.400;6.692;2023-03-03T08:59:29;2.80;75.90
78325;DHT22;67584;51.400;6.692;2023-03-03T09:01:55;2.80;75.90
78325;DHT22;67584;51.400;6.692;2023-03-03T09:04:21;2.80;75.70
78325;DHT22;67584;51.400;6.692;2023-03-03T09:06:46;2.80;75.70
78325;DHT22;67584;51.400;6.692;2023-03-03T09:09:12;2.80;75.80
78325;DHT22;67584;51.400;6.692;2023-03-03T09:11:38;2.80;75.50
78325;DHT22;67584;51.400;6.692;2023-03-03T09:14:15;3.30;75.40
78325;DHT22;67584;51.400;6.692;2023-03-03T09:16:52;3.40;75.20
78325;DHT22;67584;51.400;6.692;2023-03-03T09:19:36;3.30;74.70
78325;DHT22;67584;51.400;6.692;2023-03-03T09:24:42;3.30;74.50
78325;DHT22;67584;51.400;6.692;2023-03-03T09:27:18;3.30;74.30
78325;DHT22;67584;51.400;6.692;2023-03-03T09:29:44;3.40;74.30
78325;DHT22;67584;51.400;6.692;2023-03-03T09:32:25;3.70;74.20
78325;DHT22;67584;51.400;6.692;2023-03-03T09:34:54;3.50;73.90
78325;DHT22;67584;51.400;6.692;2023-03-03T09:37:23;3.80;73.60
78325;DHT22;67584;51.400;6.692;2023-03-03T09:39:53;3.60;73.40
78325;DHT22;67584;51.400;6.692;2023-03-03T09:45:27;3.80;73.10
78325;DHT22;67584;51.400;6.692;2023-03-03T09:48:15;4.00;72.90
78325;DHT22;67584;51.400;6.692;2023-03-03T09:56:24;4.00;72.80
78325;DHT22;67584;51.400;6.692;2023-03-03T10:18:28;4.50;71.20
78325;DHT22;67584;51.400;6.692;2023-03-03T10:21:09;4.60;70.80
78325;DHT22;67584;51.400;6.692;2023-03-03T10:36:58;5.00;69.40
78325;DHT22;67584;51.400;6.692;2023-03-03T10:39:53;5.00;68.90
78325;DHT22;67584;51.400;6.692;2023-03-03T10:48:31;5.30;68.60
78325;DHT22;67584;51.400;6.692;2023-03-03T10:50:52;5.30;68.40
78325;DHT22;67584;51.400;6.692;2023-03-03T11:04:03;5.30;68.20
78325;DHT22;67584;51.400;6.692;2023-03-03T11:12:02;5.50;67.00
78325;DHT22;67584;51.400;6.692;2023-03-03T11:14:46;5.60;67.00
78325;DHT22;67584;51.400;6.692;2023-03-03T11:20:00;5.80;66.30
78325;DHT22;67584;51.400;6.692;2023-03-03T11:41:38;6.00;66.10
78325;DHT22;67584;51.400;6.692;2023-03-03T11:44:21;5.90;65.80
78325;DHT22;67584;51.400;6.692;2023-03-03T11:46:52;6.30;65.10
78325;DHT22;67584;51.400;6.692;2023-03-03T11:55:01;6.20;64.70
78325;DHT22;67584;51.400;6.692;2023-03-03T11:57:39;6.50;64.20
78325;DHT22;67584;51.400;6.692;2023-03-03T12:00:17;6.60;63.70
78325;DHT22;67584;51.400;6.692;2023-03-03T12:02:59;6.60;63.90
78325;DHT22;67584;51.400;6.692;2023-03-03T12:19:24;7.30;61.90
78325;DHT22;67584;51.400;6.692;2023-03-03T12:30:02;7.40;61.10
78325;DHT22;67584;51.400;6.692;2023-03-03T12:35:41;7.20;60.50
78325;DHT22;67584;51.400;6.692;2023-03-03T12:43:39;8.00;60.10
78325;DHT22;67584;51.400;6.692;2023-03-03T12:56:40;8.50;57.20
78325;DHT22;67584;51.400;6.692;2023-03-03T13:05:31;8.70;56.20
78325;DHT22;67584;51.400;6.692;2023-03-03T13:08:32;9.50;55.40
78325;DHT22;67584;51.400;6.692;2023-03-03T13:14:11;12.00;50.90
78325;DHT22;67584;51.400;6.692;2023-03-03T13:16:48;14.10;46.00
78325;DHT22;67584;51.400;6.692;2023-03-03T13:19:24;15.70;44.30
78325;DHT22;67584;51.400;6.692;2023-03-03T13:21:55;18.00;39.70
78325;DHT22;67584;51.400;6.692;2023-03-03T13:24:36;19.60;37.50
78325;DHT22;67584;51.400;6.692;2023-03-03T13:27:10;21.10;35.80
78325;DHT22;67584;51.400;6.692;2023-03-03T13:29:43;21.60;32.80
78325;DHT22;67584;51.400;6.692;2023-03-03T13:32:17;22.20;33.10
78325;DHT22;67584;51.400;6.692;2023-03-03T13:34:51;23.10;31.80
78325;DHT22;67584;51.400;6.692;2023-03-03T13:42:46;24.40;28.30
78325;DHT22;67584;51.400;6.692;2023-03-03T13:50:33;23.00;30.60
78325;DHT22;67584;51.400;6.692;2023-03-03T13:59:00;25.10;27.40
78325;DHT22;67584;51.400;6.692;2023-03-03T14:07:06;26.30;25.40
78325;DHT22;67584;51.400;6.692;2023-03-03T14:20:58;27.30;24.00
78325;DHT22;67584;51.400;6.692;2023-03-03T14:23:30;28.00;23.40
78325;DHT22;67584;51.400;6.692;2023-03-03T14:28:37;27.50;23.60
78325;DHT22;67584;51.400;6.692;2023-03-03T14:31:16;28.10;22.90
78325;DHT22;67584;51.400;6.692;2023-03-03T14:33:45;28.50;22.80
78325;DHT22;67584;51.400;6.692;2023-03-03T14:36:26;29.30;21.30
78325;DHT22;67584;51.400;6.692;2023-03-03T14:38:53;29.80;21.60
78325;DHT22;67584;51.400;6.692;2023-03-03T14:41:34;28.80;21.30
78325;DHT22;67584;51.400;6.692;2023-03-03T14:44:45;28.10;22.10
78325;DHT22;67584;51.400;6.692;2023-03-03T14:47:23;28.10;22.70
78325;DHT22;67584;51.400;6.692;2023-03-03T14:49:52;27.90;23.20
78325;DHT22;67584;51.400;6.692;2023-03-03T14:52:31;27.90;22.50
78325;DHT22;67584;51.400;6.692;2023-03-03T14:55:00;27.80;23.40
78325;DHT22;67584;51.400;6.692;2023-03-03T15:05:27;28.50;22.40
78325;DHT22;67584;51.400;6.692;2023-03-03T15:10:39;27.40;23.10
78325;DHT22;67584;51.400;6.692;2023-03-03T15:18:24;25.30;25.20
78325;DHT22;67584;51.400;6.692;2023-03-03T15:21:12;25.20;24.60
78325;DHT22;67584;51.400;6.692;2023-03-03T15:35:00;26.30;23.90
78325;DHT22;67584;51.400;6.692;2023-03-03T15:37:43;26.40;23.10
78325;DHT22;67584;51.400;6.692;2023-03-03T15:43:14;24.80;25.20
78325;DHT22;67584;51.400;6.692;2023-03-03T15:48:59;24.20;26.00
78325;DHT22;67584;51.400;6.692;2023-03-03T15:52:12;24.90;24.90
78325;DHT22;67584;51.400;6.692;2023-03-03T15:57:40;23.80;26.20
78325;DHT22;67584;51.400;6.692;2023-03-03T16:03:01;22.90;27.40
78325;DHT22;67584;51.400;6.692;2023-03-03T16:06:18;23.00;27.40
78325;DHT22;67584;51.400;6.692;2023-03-03T16:08:38;22.40;28.00
78325;DHT22;67584;51.400;6.692;2023-03-03T16:11:25;22.00;28.30
78325;DHT22;67584;51.400;6.692;2023-03-03T16:14:02;21.60;29.20
78325;DHT22;67584;51.400;6.692;2023-03-03T16:16:53;21.50;29.30
78325;DHT22;67584;51.400;6.692;2023-03-03T16:33:20;20.10;31.00
78325;DHT22;67584;51.400;6.692;2023-03-03T16:38:40;18.40;33.00
78325;DHT22;67584;51.400;6.692;2023-03-03T16:41:12;17.50;34.20
78325;DHT22;67584;51.400;6.692;2023-03-03T16:44:02;16.60;35.30
78325;DHT22;67584;51.400;6.692;2023-03-03T16:46:39;15.90;36.20
78325;DHT22;67584;51.400;6.692;2023-03-03T16:49:29;15.20;38.70
78325;DHT22;67584;51.400;6.692;2023-03-03T16:52:11;14.60;38.90
78325;DHT22;67584;51.400;6.692;2023-03-03T16:55:02;13.80;40.10
78325;DHT22;67584;51.400;6.692;2023-03-03T16:58:14;12.60;43.60
78325;DHT22;67584;51.400;6.692;2023-03-03T17:01:05;11.80;44.80
78325;DHT22;67584;51.400;6.692;2023-03-03T17:06:36;10.20;47.90
78325;DHT22;67584;51.400;6.692;2023-03-03T17:12:27;9.20;49.40
78325;DHT22;67584;51.400;6.692;2023-03-03T17:20:54;8.00;52.80
78325;DHT22;67584;51.400;6.692;2023-03-03T17:29:22;7.40;56.60
78325;DHT22;67584;51.400;6.692;2023-03-03T17:34:33;6.90;55.00
78325;DHT22;67584;51.400;6.692;2023-03-03T17:37:35;6.70;57.30
78325;DHT22;67584;51.400;6.692;2023-03-03T17:42:55;6.30;56.30
78325;DHT22;67584;51.400;6.692;2023-03-03T17:45:25;6.40;57.10
78325;DHT22;67584;51.400;6.692;2023-03-03T17:50:53;6.00;58.30
78325;DHT22;67584;51.400;6.692;2023-03-03T17:53:27;5.80;58.70
78325;DHT22;67584;51.400;6.692;2023-03-03T18:15:16;4.70;62.80
78325;DHT22;67584;51.400;6.692;2023-03-03T18:20:29;4.70;64.60
78325;DHT22;67584;51.400;6.692;2023-03-03T18:22:57;4.60;65.30
78325;DHT22;67584;51.400;6.692;2023-03-03T18:25:55;4.60;65.00
78325;DHT22;67584;51.400;6.692;2023-03-03T18:28:36;4.70;65.30
78325;DHT22;67584;51.400;6.692;2023-03-03T18:31:23;4.80;65.50
78325;DHT22;67584;51.400;6.692;2023-03-03T18:38:59;5.10;66.10
78325;DHT22;67584;51.400;6.692;2023-03-03T18:42:05;4.90;66.50
78325;DHT22;67584;51.400;6.692;2023-03-03T18:44:32;5.10;66.30
78325;DHT22;67584;51.400;6.692;2023-03-03T18:46:58;5.00;65.50
78325;DHT22;67584;51.400;6.692;2023-03-03T18:52:27;5.10;66.10
78325;DHT22;67584;51.400;6.692;2023-03-03T18:57:28;5.40;66.00
78325;DHT22;67584;51.400;6.692;2023-03-03T19:00:07;5.40;66.30
78325;DHT22;67584;51.400;6.692;2023-03-03T19:02:37;5.30;66.70
78325;DHT22;67584;51.400;6.692;2023-03-03T19:12:59;5.60;66.00
78325;DHT22;67584;51.400;6.692;2023-03-03T19:18:23;5.70;66.20
78325;DHT22;67584;51.400;6.692;2023-03-03T19:21:04;5.60;66.40
78325;DHT22;67584;51.400;6.692;2023-03-03T19:23:52;5.60;66.70
78325;DHT22;67584;51.400;6.692;2023-03-03T19:40:22;5.70;66.40
78325;DHT22;67584;51.400;6.692;2023-03-03T19:59:15;5.50;67.60
78325;DHT22;67584;51.400;6.692;2023-03-03T20:10:41;5.30;67.70
78325;DHT22;67584;51.400;6.692;2023-03-03T20:16:39;5.40;71.00
78325;DHT22;67584;51.400;6.692;2023-03-03T20:22:09;5.30;70.60
78325;DHT22;67584;51.400;6.692;2023-03-03T20:27:35;5.50;68.60
78325;DHT22;67584;51.400;6.692;2023-03-03T20:35:56;5.50;68.80
78325;DHT22;67584;51.400;6.692;2023-03-03T20:41:31;5.50;68.50
78325;DHT22;67584;51.400;6.692;2023-03-03T20:44:22;5.60;68.80
78325;DHT22;67584;51.400;6.692;2023-03-03T20:49:57;5.60;68.20
78325;DHT22;67584;51.400;6.692;2023-03-03T20:52:36;5.70;67.90
78325;DHT22;67584;51.400;6.692;2023-03-03T21:01:13;5.60;68.40
78325;DHT22;67584;51.400;6.692;2023-03-03T21:03:41;5.60;67.90
78325;DHT22;67584;51.400;6.692;2023-03-03T21:06:14;5.60;67.50
78325;DHT22;67584;51.400;6.692;2023-03-03T21:08:55;5.70;67.40
78325;DHT22;67584;51.400;6.692;2023-03-03T21:11:40;5.40;67.30
78325;DHT22;67584;51.400;6.692;2023-03-03T21:14:16;5.60;67.00
78325;DHT22;67584;51.400;6.692;2023-03-03T21:16:43;5.40;67.00
78325;DHT22;67584;51.400;6.692;2023-03-03T21:19:12;5.60;67.00
78325;DHT22;67584;51.400;6.692;2023-03-03T21:21:41;5.50;66.80
78325;DHT22;67584;51.400;6.692;2023-03-03T21:24:10;5.50;66.90
78325;DHT22;67584;51.400;6.692;2023-03-03T21:31:58;5.50;66.80
78325;DHT22;67584;51.400;6.692;2023-03-03T21:34:41;5.60;66.90
78325;DHT22;67584;51.400;6.692;2023-03-03T21:37:12;5.70;66.80
78325;DHT22;67584;51.400;6.692;2023-03-03T21:39:43;5.70;66.60
78325;DHT22;67584;51.400;6.692;2023-03-03T21:42:13;5.70;66.40
78325;DHT22;67584;51.400;6.692;2023-03-03T21:44:43;5.50;66.10
78325;DHT22;67584;51.400;6.692;2023-03-03T21:47:13;5.50;65.80
78325;DHT22;67584;51.400;6.692;2023-03-03T21:49:41;5.50;65.50
78325;DHT22;67584;51.400;6.692;2023-03-03T21:52:07;5.40;65.60
78325;DHT22;67584;51.400;6.692;2023-03-03T21:54:33;5.50;65.60
78325;DHT22;67584;51.400;6.692;2023-03-03T21:56:59;5.40;65.30
78325;DHT22;67584;51.400;6.692;2023-03-03T21:59:25;5.30;65.40
78325;DHT22;67584;51.400;6.692;2023-03-03T22:01:51;5.40;65.30
78325;DHT22;67584;51.400;6.692;2023-03-03T22:04:17;5.40;65.30
78325;DHT22;67584;51.400;6.692;2023-03-03T22:06:43;5.60;65.10
78325;DHT22;67584;51.400;6.692;2023-03-03T22:09:09;5.50;65.40
78325;DHT22;67584;51.400;6.692;2023-03-03T22:11:35;5.40;65.10
78325;DHT22;67584;51.400;6.692;2023-03-03T22:14:01;5.50;65.20
78325;DHT22;67584;51.400;6.692;2023-03-03T22:16:27;5.60;64.90
78325;DHT22;67584;51.400;6.692;2023-03-03T22:18:53;5.50;65.00
78325;DHT22;67584;51.400;6.692;2023-03-03T22:21:18;5.60;64.90
78325;DHT22;67584;51.400;6.692;2023-03-03T22:23:44;5.50;64.90
78325;DHT22;67584;51.400;6.692;2023-03-03T22:26:10;5.50;64.80
78325;DHT22;67584;51.400;6.692;2023-03-03T22:28:36;5.40;64.80
78325;DHT22;67584;51.400;6.692;2023-03-03T22:31:01;5.40;64.70
78325;DHT22;67584;51.400;6.692;2023-03-03T22:33:27;5.50;64.80
78325;DHT22;67584;51.400;6.692;2023-03-03T22:35:53;5.40;65.10
78325;DHT22;67584;51.400;6.692;2023-03-03T22:38:19;5.30;65.10
78325;DHT22;67584;51.400;6.692;2023-03-03T22:40:45;5.40;64.90
78325;DHT22;67584;51.400;6.692;2023-03-03T22:43:10;5.30;65.00
78325;DHT22;67584;51.400;6.692;2023-03-03T22:45:39;5.50;65.00
78325;DHT22;67584;51.400;6.692;2023-03-03T22:48:05;5.30;64.90
78325;DHT22;67584;51.400;6.692;2023-03-03T22:50:31;5.30;64.70
78325;DHT22;67584;51.400;6.692;2023-03-03T22:52:57;5.50;65.00
78325;DHT22;67584;51.400;6.692;2023-03-03T22:55:22;5.40;65.10
78325;DHT22;67584;51.400;6.692;2023-03-03T22:57:48;5.10;65.00
78325;DHT22;67584;51.400;6.692;2023-03-03T23:00:15;5.30;65.20
78325;DHT22;67584;51.400;6.692;2023-03-03T23:02:41;5.30;65.20